sensor_id;sensor_type;location;lat;lon;timestamp;pressure;altitude;pressure_sealevel;temperature;humidity
25526;BME280;13424;48.424;11.258;2022-08-01T00:01:13;95616.41;;;22.81;63.73
25526;BME280;13424;48.424;11.258;2022-08-01T00:03:39;95621.50;;;22.66;64.15
25526;BME280;13424;48.424;11.258;2022-08-01T00:06:05;95616.50;;;22.59;64.16
25526;BME280;13424;48.424;11.258;2022-08-01T00:08:50;95613.63;;;22.55;64.52
25526;BME280;13424;48.424;11.258;2022-08-01T00:11:16;95617.28;;;22.51;64.37
25526;BME280;13424;48.424;11.258;2022-08-01T00:13:42;95617.59;;;22.49;64.30
25526;BME280;13424;48.424;11.258;2022-08-01T00:20:08;95623.00;;;22.41;64.61
25526;BME280;13424;48.424;11.258;2022-08-01T00:22:35;95624.72;;;22.28;65.06
25526;BME280;13424;48.424;11.258;2022-08-01T00:25:02;95620.38;;;22.27;65.18
25526;BME280;13424;48.424;11.258;2022-08-01T00:27:28;95619.31;;;22.28;65.07
25526;BME280;13424;48.424;11.258;2022-08-01T00:29:54;95628.81;;;22.17;65.35
25526;BME280;13424;48.424;11.258;2022-08-01T00:32:20;95627.22;;;22.16;65.29
25526;BME280;13424;48.424;11.258;2022-08-01T00:34:46;95628.22;;;22.20;65.22
25526;BME280;13424;48.424;11.258;2022-08-01T00:37:12;95629.63;;;22.17;65.21
25526;BME280;13424;48.424;11.258;2022-08-01T00:39:50;95628.94;;;22.12;65.25
25526;BME280;13424;48.424;11.258;2022-08-01T00:42:16;95624.03;;;22.14;65.20
25526;BME280;13424;48.424;11.258;2022-08-01T00:44:42;95623.38;;;22.17;65.03
25526;BME280;13424;48.424;11.258;2022-08-01T00:47:09;95619.31;;;22.06;65.40
25526;BME280;13424;48.424;11.258;2022-08-01T00:49:35;95626.34;;;22.07;65.42
25526;BME280;13424;48.424;11.258;2022-08-01T00:52:03;95619.06;;;21.93;65.93
25526;BME280;13424;48.424;11.258;2022-08-01T00:54:30;95610.97;;;22.02;65.61
25526;BME280;13424;48.424;11.258;2022-08-01T00:56:57;95617.00;;;22.13;65.31
25526;BME280;13424;48.424;11.258;2022-08-01T00:59:23;95625.50;;;22.20;65.32
25526;BME280;13424;48.424;11.258;2022-08-01T01:01:51;95620.72;;;22.25;65.07
25526;BME280;13424;48.424;11.258;2022-08-01T01:04:17;95618.44;;;22.19;65.52
25526;BME280;13424;48.424;11.258;2022-08-01T01:09:59;95623.03;;;22.10;66.03
25526;BME280;13424;48.424;11.258;2022-08-01T01:13:11;95618.75;;;21.95;66.56
25526;BME280;13424;48.424;11.258;2022-08-01T01:15:55;95614.34;;;21.77;67.00
25526;BME280;13424;48.424;11.258;2022-08-01T01:18:49;95626.38;;;21.84;66.03
25526;BME280;13424;48.424;11.258;2022-08-01T01:22:27;95616.69;;;21.69;66.54
25526;BME280;13424;48.424;11.258;2022-08-01T01:28:40;95617.00;;;21.68;66.44
25526;BME280;13424;48.424;11.258;2022-08-01T01:31:12;95626.13;;;21.72;66.32
25526;BME280;13424;48.424;11.258;2022-08-01T01:33:40;95621.22;;;21.74;66.09
25526;BME280;13424;48.424;11.258;2022-08-01T01:36:10;95622.19;;;21.78;65.85
25526;BME280;13424;48.424;11.258;2022-08-01T01:38:43;95623.41;;;21.72;66.14
25526;BME280;13424;48.424;11.258;2022-08-01T01:41:14;95625.09;;;21.59;66.23
25526;BME280;13424;48.424;11.258;2022-08-01T01:43:41;95621.91;;;21.57;66.28
25526;BME280;13424;48.424;11.258;2022-08-01T01:46:10;95623.28;;;21.32;67.23
25526;BME280;13424;48.424;11.258;2022-08-01T01:48:38;95614.97;;;21.15;68.02
25526;BME280;13424;48.424;11.258;2022-08-01T01:51:15;95618.25;;;21.03;68.17
25526;BME280;13424;48.424;11.258;2022-08-01T01:53:43;95618.25;;;21.03;67.71
25526;BME280;13424;48.424;11.258;2022-08-01T01:56:11;95620.59;;;21.18;67.10
25526;BME280;13424;48.424;11.258;2022-08-01T01:58:41;95615.38;;;21.22;66.65
25526;BME280;13424;48.424;11.258;2022-08-01T02:01:08;95615.38;;;21.22;66.50
25526;BME280;13424;48.424;11.258;2022-08-01T02:03:37;95619.06;;;21.26;65.92
25526;BME280;13424;48.424;11.258;2022-08-01T02:06:04;95619.28;;;21.16;65.97
25526;BME280;13424;48.424;11.258;2022-08-01T02:08:31;95627.47;;;21.02;66.42
25526;BME280;13424;48.424;11.258;2022-08-01T02:10:59;95626.44;;;21.12;66.58
25526;BME280;13424;48.424;11.258;2022-08-01T02:13:59;95628.94;;;21.08;66.04
25526;BME280;13424;48.424;11.258;2022-08-01T02:16:31;95623.72;;;21.12;66.14
25526;BME280;13424;48.424;11.258;2022-08-01T02:18:59;95619.63;;;21.01;65.78
25526;BME280;13424;48.424;11.258;2022-08-01T02:21:53;95615.78;;;21.15;65.59
25526;BME280;13424;48.424;11.258;2022-08-01T02:24:55;95623.41;;;21.27;64.70
25526;BME280;13424;48.424;11.258;2022-08-01T02:30:07;95633.66;;;21.53;64.28
25526;BME280;13424;48.424;11.258;2022-08-01T02:32:47;95633.56;;;21.58;63.97
25526;BME280;13424;48.424;11.258;2022-08-01T02:35:30;95630.69;;;21.40;65.33
25526;BME280;13424;48.424;11.258;2022-08-01T02:38:01;95633.44;;;21.27;65.65
25526;BME280;13424;48.424;11.258;2022-08-01T02:40:32;95639.78;;;21.22;65.76
25526;BME280;13424;48.424;11.258;2022-08-01T02:43:01;95638.28;;;21.30;65.21
25526;BME280;13424;48.424;11.258;2022-08-01T02:45:28;95635.34;;;21.26;64.95
25526;BME280;13424;48.424;11.258;2022-08-01T02:48:07;95650.13;;;21.34;64.63
25526;BME280;13424;48.424;11.258;2022-08-01T02:50:36;95647.53;;;21.29;64.84
25526;BME280;13424;48.424;11.258;2022-08-01T02:53:04;95642.09;;;21.15;65.03
25526;BME280;13424;48.424;11.258;2022-08-01T02:55:33;95645.69;;;21.24;65.11
25526;BME280;13424;48.424;11.258;2022-08-01T02:58:01;95651.03;;;21.15;65.84
25526;BME280;13424;48.424;11.258;2022-08-01T03:00:29;95649.00;;;21.21;65.25
25526;BME280;13424;48.424;11.258;2022-08-01T03:02:57;95644.31;;;21.13;65.00
25526;BME280;13424;48.424;11.258;2022-08-01T03:05:26;95661.25;;;21.32;64.57
25526;BME280;13424;48.424;11.258;2022-08-01T03:07:55;95656.16;;;21.31;64.34
25526;BME280;13424;48.424;11.258;2022-08-01T03:10:22;95663.38;;;21.35;64.55
25526;BME280;13424;48.424;11.258;2022-08-01T03:12:51;95661.38;;;21.27;64.81
25526;BME280;13424;48.424;11.258;2022-08-01T03:15:17;95656.34;;;21.21;65.27
25526;BME280;13424;48.424;11.258;2022-08-01T03:17:47;95660.59;;;21.13;65.27
25526;BME280;13424;48.424;11.258;2022-08-01T03:20:18;95654.38;;;20.99;65.64
25526;BME280;13424;48.424;11.258;2022-08-01T03:22:46;95652.78;;;20.84;65.73
25526;BME280;13424;48.424;11.258;2022-08-01T03:25:15;95665.28;;;20.71;66.07
25526;BME280;13424;48.424;11.258;2022-08-01T03:27:43;95652.00;;;20.83;65.98
25526;BME280;13424;48.424;11.258;2022-08-01T03:30:12;95656.81;;;20.86;65.92
25526;BME280;13424;48.424;11.258;2022-08-01T03:32:43;95657.00;;;20.76;65.97
25526;BME280;13424;48.424;11.258;2022-08-01T03:35:09;95670.69;;;20.71;65.91
25526;BME280;13424;48.424;11.258;2022-08-01T03:37:46;95663.44;;;20.53;66.68
25526;BME280;13424;48.424;11.258;2022-08-01T03:40:44;95665.44;;;20.61;66.14
25526;BME280;13424;48.424;11.258;2022-08-01T03:43:54;95670.94;;;20.42;66.56
25526;BME280;13424;48.424;11.258;2022-08-01T03:46:19;95662.88;;;20.56;66.56
25526;BME280;13424;48.424;11.258;2022-08-01T03:48:48;95668.28;;;20.56;66.27
25526;BME280;13424;48.424;11.258;2022-08-01T03:51:18;95669.19;;;20.65;66.16
25526;BME280;13424;48.424;11.258;2022-08-01T03:53:45;95670.78;;;20.66;66.12
25526;BME280;13424;48.424;11.258;2022-08-01T03:56:13;95673.09;;;20.73;66.27
25526;BME280;13424;48.424;11.258;2022-08-01T03:58:43;95668.44;;;20.46;66.75
25526;BME280;13424;48.424;11.258;2022-08-01T04:01:10;95673.72;;;20.70;66.16
25526;BME280;13424;48.424;11.258;2022-08-01T04:03:37;95675.00;;;20.72;66.03
25526;BME280;13424;48.424;11.258;2022-08-01T04:06:07;95680.91;;;20.74;66.10
25526;BME280;13424;48.424;11.258;2022-08-01T04:08:39;95673.69;;;20.83;65.81
25526;BME280;13424;48.424;11.258;2022-08-01T04:11:08;95680.94;;;20.47;66.72
25526;BME280;13424;48.424;11.258;2022-08-01T04:13:40;95682.94;;;20.55;66.62
25526;BME280;13424;48.424;11.258;2022-08-01T04:16:06;95689.13;;;20.69;66.43
25526;BME280;13424;48.424;11.258;2022-08-01T04:18:34;95693.16;;;20.72;66.49
25526;BME280;13424;48.424;11.258;2022-08-01T04:21:00;95697.38;;;20.64;66.34
25526;BME280;13424;48.424;11.258;2022-08-01T04:23:28;95694.78;;;20.73;66.53
25526;BME280;13424;48.424;11.258;2022-08-01T04:25:57;95698.38;;;20.68;66.29
25526;BME280;13424;48.424;11.258;2022-08-01T04:28:25;95699.06;;;20.60;66.48
25526;BME280;13424;48.424;11.258;2022-08-01T04:30:54;95707.00;;;20.84;65.76
25526;BME280;13424;48.424;11.258;2022-08-01T04:33:21;95706.38;;;21.01;65.71
25526;BME280;13424;48.424;11.258;2022-08-01T04:35:49;95704.19;;;21.03;65.71
25526;BME280;13424;48.424;11.258;2022-08-01T04:38:22;95698.78;;;21.03;65.81
25526;BME280;13424;48.424;11.258;2022-08-01T04:40:51;95705.47;;;21.19;65.44
25526;BME280;13424;48.424;11.258;2022-08-01T04:43:18;95703.34;;;21.16;65.81
25526;BME280;13424;48.424;11.258;2022-08-01T04:45:46;95710.78;;;21.24;66.05
25526;BME280;13424;48.424;11.258;2022-08-01T04:48:15;95708.38;;;21.23;65.40
25526;BME280;13424;48.424;11.258;2022-08-01T04:50:42;95710.59;;;21.34;65.80
25526;BME280;13424;48.424;11.258;2022-08-01T04:53:17;95715.00;;;21.30;65.31
25526;BME280;13424;48.424;11.258;2022-08-01T04:55:45;95715.22;;;21.34;65.05
25526;BME280;13424;48.424;11.258;2022-08-01T04:58:17;95730.19;;;21.17;65.95
25526;BME280;13424;48.424;11.258;2022-08-01T05:00:43;95719.44;;;21.26;65.35
25526;BME280;13424;48.424;11.258;2022-08-01T05:03:09;95720.25;;;21.13;65.58
25526;BME280;13424;48.424;11.258;2022-08-01T05:05:35;95722.16;;;21.26;65.44
25526;BME280;13424;48.424;11.258;2022-08-01T05:08:02;95728.88;;;21.29;65.70
25526;BME280;13424;48.424;11.258;2022-08-01T05:10:28;95725.66;;;21.27;65.80
25526;BME280;13424;48.424;11.258;2022-08-01T05:12:54;95720.63;;;21.20;65.96
25526;BME280;13424;48.424;11.258;2022-08-01T05:15:20;95727.81;;;21.66;65.45
25526;BME280;13424;48.424;11.258;2022-08-01T05:17:48;95727.09;;;21.96;65.91
25526;BME280;13424;48.424;11.258;2022-08-01T05:20:14;95736.31;;;21.95;64.97
25526;BME280;13424;48.424;11.258;2022-08-01T05:22:40;95742.53;;;22.10;64.39
25526;BME280;13424;48.424;11.258;2022-08-01T05:25:06;95733.44;;;22.99;62.28
25526;BME280;13424;48.424;11.258;2022-08-01T05:27:32;95737.47;;;22.79;62.59
25526;BME280;13424;48.424;11.258;2022-08-01T05:30:04;95738.16;;;22.84;63.50
25526;BME280;13424;48.424;11.258;2022-08-01T05:32:30;95743.13;;;22.51;62.96
25526;BME280;13424;48.424;11.258;2022-08-01T05:34:57;95749.59;;;22.73;61.90
25526;BME280;13424;48.424;11.258;2022-08-01T05:37:23;95744.25;;;22.90;62.57
25526;BME280;13424;48.424;11.258;2022-08-01T05:39:49;95739.50;;;23.04;61.72
25526;BME280;13424;48.424;11.258;2022-08-01T05:42:15;95746.75;;;23.09;61.83
25526;BME280;13424;48.424;11.258;2022-08-01T05:44:41;95743.75;;;23.28;60.30
25526;BME280;13424;48.424;11.258;2022-08-01T05:47:07;95751.38;;;23.08;60.89
25526;BME280;13424;48.424;11.258;2022-08-01T05:49:33;95742.13;;;23.27;60.96
25526;BME280;13424;48.424;11.258;2022-08-01T05:51:59;95747.38;;;23.63;59.96
25526;BME280;13424;48.424;11.258;2022-08-01T05:54:27;95748.97;;;23.73;59.91
25526;BME280;13424;48.424;11.258;2022-08-01T05:56:53;95753.09;;;23.61;59.94
25526;BME280;13424;48.424;11.258;2022-08-01T05:59:23;95752.63;;;24.20;59.34
25526;BME280;13424;48.424;11.258;2022-08-01T06:01:49;95749.44;;;24.18;58.75
25526;BME280;13424;48.424;11.258;2022-08-01T06:04:15;95749.78;;;24.34;58.44
25526;BME280;13424;48.424;11.258;2022-08-01T06:06:41;95751.84;;;24.37;58.38
25526;BME280;13424;48.424;11.258;2022-08-01T06:09:07;95760.56;;;24.77;58.11
25526;BME280;13424;48.424;11.258;2022-08-01T06:11:34;95758.09;;;24.93;57.45
25526;BME280;13424;48.424;11.258;2022-08-01T06:14:00;95766.50;;;24.70;58.23
25526;BME280;13424;48.424;11.258;2022-08-01T06:16:26;95762.91;;;24.87;56.89
25526;BME280;13424;48.424;11.258;2022-08-01T06:18:52;95765.06;;;24.73;57.72
25526;BME280;13424;48.424;11.258;2022-08-01T06:21:18;95768.81;;;24.98;58.66
25526;BME280;13424;48.424;11.258;2022-08-01T06:23:44;95769.69;;;24.81;57.84
25526;BME280;13424;48.424;11.258;2022-08-01T06:26:10;95771.91;;;24.88;58.47
25526;BME280;13424;48.424;11.258;2022-08-01T06:28:38;95775.41;;;24.97;58.16
25526;BME280;13424;48.424;11.258;2022-08-01T06:31:04;95776.72;;;24.91;57.75
25526;BME280;13424;48.424;11.258;2022-08-01T06:33:30;95785.66;;;25.00;57.69
25526;BME280;13424;48.424;11.258;2022-08-01T06:35:57;95774.53;;;24.75;57.92
25526;BME280;13424;48.424;11.258;2022-08-01T06:38:34;95781.22;;;24.87;57.99
25526;BME280;13424;48.424;11.258;2022-08-01T06:41:01;95780.13;;;24.70;58.95
25526;BME280;13424;48.424;11.258;2022-08-01T06:43:26;95780.59;;;24.72;58.42
25526;BME280;13424;48.424;11.258;2022-08-01T06:45:52;95780.28;;;24.83;57.75
25526;BME280;13424;48.424;11.258;2022-08-01T06:48:18;95780.19;;;25.09;57.65
25526;BME280;13424;48.424;11.258;2022-08-01T06:50:44;95777.00;;;25.07;57.27
25526;BME280;13424;48.424;11.258;2022-08-01T06:53:11;95783.09;;;25.03;57.32
25526;BME280;13424;48.424;11.258;2022-08-01T06:55:37;95776.94;;;25.53;56.55
25526;BME280;13424;48.424;11.258;2022-08-01T06:58:03;95784.09;;;25.58;56.66
25526;BME280;13424;48.424;11.258;2022-08-01T07:00:29;95790.72;;;25.86;55.58
25526;BME280;13424;48.424;11.258;2022-08-01T07:02:57;95779.72;;;25.66;57.53
25526;BME280;13424;48.424;11.258;2022-08-01T07:05:24;95777.38;;;26.06;56.44
25526;BME280;13424;48.424;11.258;2022-08-01T07:07:51;95778.84;;;25.82;56.38
25526;BME280;13424;48.424;11.258;2022-08-01T07:10:17;95779.38;;;25.76;56.16
25526;BME280;13424;48.424;11.258;2022-08-01T07:12:43;95779.63;;;26.04;56.33
25526;BME280;13424;48.424;11.258;2022-08-01T07:15:11;95778.72;;;26.00;56.96
25526;BME280;13424;48.424;11.258;2022-08-01T07:17:42;95781.69;;;26.28;55.81
25526;BME280;13424;48.424;11.258;2022-08-01T07:20:12;95780.59;;;26.08;55.07
25526;BME280;13424;48.424;11.258;2022-08-01T07:22:38;95781.88;;;26.23;54.56
25526;BME280;13424;48.424;11.258;2022-08-01T07:25:05;95783.63;;;26.06;55.03
25526;BME280;13424;48.424;11.258;2022-08-01T07:27:32;95785.31;;;26.40;55.38
25526;BME280;13424;48.424;11.258;2022-08-01T07:29:58;95782.03;;;26.05;55.68
25526;BME280;13424;48.424;11.258;2022-08-01T07:32:24;95785.28;;;25.99;55.47
25526;BME280;13424;48.424;11.258;2022-08-01T07:34:50;95790.16;;;26.56;56.45
25526;BME280;13424;48.424;11.258;2022-08-01T07:37:17;95783.88;;;26.34;56.25
25526;BME280;13424;48.424;11.258;2022-08-01T07:39:43;95789.91;;;26.49;55.30
25526;BME280;13424;48.424;11.258;2022-08-01T07:42:09;95790.94;;;26.56;55.03
25526;BME280;13424;48.424;11.258;2022-08-01T07:44:36;95787.06;;;26.36;55.93
25526;BME280;13424;48.424;11.258;2022-08-01T07:47:03;95786.81;;;26.50;54.70
25526;BME280;13424;48.424;11.258;2022-08-01T07:49:30;95789.59;;;27.08;54.59
25526;BME280;13424;48.424;11.258;2022-08-01T07:51:57;95786.63;;;26.67;54.87
25526;BME280;13424;48.424;11.258;2022-08-01T07:54:23;95784.63;;;26.43;55.70
25526;BME280;13424;48.424;11.258;2022-08-01T07:56:51;95788.47;;;27.33;54.46
25526;BME280;13424;48.424;11.258;2022-08-01T07:59:17;95790.63;;;27.64;53.26
25526;BME280;13424;48.424;11.258;2022-08-01T08:01:51;95781.63;;;27.27;54.10
25526;BME280;13424;48.424;11.258;2022-08-01T08:04:18;95790.47;;;26.99;54.02
25526;BME280;13424;48.424;11.258;2022-08-01T08:06:44;95782.06;;;27.17;54.54
25526;BME280;13424;48.424;11.258;2022-08-01T08:09:14;95791.66;;;27.47;54.28
25526;BME280;13424;48.424;11.258;2022-08-01T08:11:45;95792.38;;;27.69;53.57
25526;BME280;13424;48.424;11.258;2022-08-01T08:14:11;95775.31;;;27.63;53.71
25526;BME280;13424;48.424;11.258;2022-08-01T08:16:38;95775.22;;;27.84;52.72
25526;BME280;13424;48.424;11.258;2022-08-01T08:19:04;95777.72;;;27.65;53.83
25526;BME280;13424;48.424;11.258;2022-08-01T08:21:31;95775.13;;;27.44;53.17
25526;BME280;13424;48.424;11.258;2022-08-01T08:23:57;95778.66;;;27.44;53.24
25526;BME280;13424;48.424;11.258;2022-08-01T08:26:41;95775.31;;;27.88;53.48
25526;BME280;13424;48.424;11.258;2022-08-01T08:29:07;95777.69;;;26.79;53.80
25526;BME280;13424;48.424;11.258;2022-08-01T08:31:34;95778.53;;;27.65;53.80
25526;BME280;13424;48.424;11.258;2022-08-01T08:34:00;95768.31;;;28.02;52.97
25526;BME280;13424;48.424;11.258;2022-08-01T08:36:26;95769.50;;;27.89;52.75
25526;BME280;13424;48.424;11.258;2022-08-01T08:38:52;95784.16;;;28.09;53.05
25526;BME280;13424;48.424;11.258;2022-08-01T08:41:18;95767.78;;;28.37;51.96
25526;BME280;13424;48.424;11.258;2022-08-01T08:43:44;95769.38;;;28.38;52.61
25526;BME280;13424;48.424;11.258;2022-08-01T08:46:12;95773.59;;;27.95;52.65
25526;BME280;13424;48.424;11.258;2022-08-01T08:48:41;95771.78;;;28.99;52.59
25526;BME280;13424;48.424;11.258;2022-08-01T08:51:10;95767.19;;;29.35;49.56
25526;BME280;13424;48.424;11.258;2022-08-01T08:53:41;95765.34;;;28.91;51.26
25526;BME280;13424;48.424;11.258;2022-08-01T08:56:14;95774.75;;;28.62;50.75
25526;BME280;13424;48.424;11.258;2022-08-01T08:58:44;95767.84;;;28.69;51.77
25526;BME280;13424;48.424;11.258;2022-08-01T09:01:11;95772.00;;;28.62;51.28
25526;BME280;13424;48.424;11.258;2022-08-01T09:03:39;95763.50;;;28.83;49.72
25526;BME280;13424;48.424;11.258;2022-08-01T09:06:06;95769.38;;;28.38;50.97
25526;BME280;13424;48.424;11.258;2022-08-01T09:08:33;95774.31;;;28.60;50.60
25526;BME280;13424;48.424;11.258;2022-08-01T09:10:59;95770.75;;;29.19;50.94
25526;BME280;13424;48.424;11.258;2022-08-01T09:13:25;95773.91;;;30.23;50.51
25526;BME280;13424;48.424;11.258;2022-08-01T09:15:54;95769.06;;;30.17;48.92
25526;BME280;13424;48.424;11.258;2022-08-01T09:23:38;95769.31;;;29.57;50.13
25526;BME280;13424;48.424;11.258;2022-08-01T09:26:06;95772.59;;;29.63;48.91
25526;BME280;13424;48.424;11.258;2022-08-01T09:28:33;95774.09;;;29.60;49.20
25526;BME280;13424;48.424;11.258;2022-08-01T09:30:59;95766.41;;;30.20;49.97
25526;BME280;13424;48.424;11.258;2022-08-01T09:33:56;95780.31;;;30.27;48.17
25526;BME280;13424;48.424;11.258;2022-08-01T09:36:26;95771.53;;;30.41;48.35
25526;BME280;13424;48.424;11.258;2022-08-01T09:38:54;95771.31;;;30.50;46.86
25526;BME280;13424;48.424;11.258;2022-08-01T09:41:32;95768.41;;;30.04;48.36
25526;BME280;13424;48.424;11.258;2022-08-01T09:43:59;95776.88;;;30.15;47.84
25526;BME280;13424;48.424;11.258;2022-08-01T09:46:25;95778.41;;;30.32;48.24
25526;BME280;13424;48.424;11.258;2022-08-01T09:49:04;95766.00;;;29.67;47.87
25526;BME280;13424;48.424;11.258;2022-08-01T09:51:38;95771.97;;;29.38;48.22
25526;BME280;13424;48.424;11.258;2022-08-01T09:54:06;95772.25;;;29.33;49.07
25526;BME280;13424;48.424;11.258;2022-08-01T09:56:42;95770.53;;;29.44;49.09
25526;BME280;13424;48.424;11.258;2022-08-01T09:59:09;95768.16;;;29.42;48.48
25526;BME280;13424;48.424;11.258;2022-08-01T10:01:45;95764.16;;;28.77;49.29
25526;BME280;13424;48.424;11.258;2022-08-01T10:04:21;95764.00;;;29.33;48.88
25526;BME280;13424;48.424;11.258;2022-08-01T10:06:50;95767.84;;;30.14;47.97
25526;BME280;13424;48.424;11.258;2022-08-01T10:09:30;95768.09;;;30.87;46.12
25526;BME280;13424;48.424;11.258;2022-08-01T10:11:59;95773.97;;;30.85;45.48
25526;BME280;13424;48.424;11.258;2022-08-01T10:14:28;95762.84;;;29.85;46.60
25526;BME280;13424;48.424;11.258;2022-08-01T10:16:58;95756.19;;;29.86;46.81
25526;BME280;13424;48.424;11.258;2022-08-01T10:19:28;95752.31;;;29.04;47.28
25526;BME280;13424;48.424;11.258;2022-08-01T10:21:56;95751.34;;;30.14;46.86
25526;BME280;13424;48.424;11.258;2022-08-01T10:24:26;95758.53;;;30.80;45.57
25526;BME280;13424;48.424;11.258;2022-08-01T10:27:02;95750.41;;;30.88;45.31
25526;BME280;13424;48.424;11.258;2022-08-01T10:29:40;95747.31;;;30.27;46.33
25526;BME280;13424;48.424;11.258;2022-08-01T10:32:07;95737.16;;;30.32;46.19
25526;BME280;13424;48.424;11.258;2022-08-01T10:34:37;95748.88;;;30.09;46.21
25526;BME280;13424;48.424;11.258;2022-08-01T10:37:07;95756.19;;;29.86;45.73
25526;BME280;13424;48.424;11.258;2022-08-01T10:39:35;95747.16;;;29.50;47.07
25526;BME280;13424;48.424;11.258;2022-08-01T10:42:03;95738.47;;;30.18;47.09
25526;BME280;13424;48.424;11.258;2022-08-01T10:44:31;95740.75;;;30.55;46.09
25526;BME280;13424;48.424;11.258;2022-08-01T10:47:13;95735.47;;;31.11;46.09
25526;BME280;13424;48.424;11.258;2022-08-01T10:50:15;95740.78;;;31.73;44.12
25526;BME280;13424;48.424;11.258;2022-08-01T10:58:33;95724.16;;;32.60;43.18
25526;BME280;13424;48.424;11.258;2022-08-01T11:04:18;95713.75;;;32.46;42.92
25526;BME280;13424;48.424;11.258;2022-08-01T11:07:07;95709.50;;;32.89;43.31
25526;BME280;13424;48.424;11.258;2022-08-01T11:09:47;95712.47;;;32.06;42.69
25526;BME280;13424;48.424;11.258;2022-08-01T11:12:18;95716.94;;;31.84;43.13
25526;BME280;13424;48.424;11.258;2022-08-01T11:17:44;95705.06;;;31.27;43.38
25526;BME280;13424;48.424;11.258;2022-08-01T11:20:20;95705.25;;;31.38;44.07
25526;BME280;13424;48.424;11.258;2022-08-01T11:38:42;95706.75;;;29.35;46.12
25526;BME280;13424;48.424;11.258;2022-08-01T11:41:30;95703.09;;;29.46;46.21
25526;BME280;13424;48.424;11.258;2022-08-01T11:44:15;95700.00;;;29.48;46.84
25526;BME280;13424;48.424;11.258;2022-08-01T11:47:06;95702.19;;;29.23;47.41
25526;BME280;13424;48.424;11.258;2022-08-01T11:52:15;95710.34;;;29.90;46.47
25526;BME280;13424;48.424;11.258;2022-08-01T11:54:52;95703.75;;;30.10;46.29
25526;BME280;13424;48.424;11.258;2022-08-01T11:57:24;95705.13;;;29.85;46.11
25526;BME280;13424;48.424;11.258;2022-08-01T11:59:58;95703.75;;;29.75;46.78
25526;BME280;13424;48.424;11.258;2022-08-01T12:02:30;95706.06;;;29.73;46.12
25526;BME280;13424;48.424;11.258;2022-08-01T12:05:14;95700.06;;;29.67;46.59
25526;BME280;13424;48.424;11.258;2022-08-01T12:07:44;95697.31;;;29.32;47.13
25526;BME280;13424;48.424;11.258;2022-08-01T12:10:18;95700.00;;;29.83;47.14
25526;BME280;13424;48.424;11.258;2022-08-01T12:12:48;95699.97;;;30.18;46.05
25526;BME280;13424;48.424;11.258;2022-08-01T12:15:15;95697.56;;;30.78;44.97
25526;BME280;13424;48.424;11.258;2022-08-01T12:17:50;95699.75;;;30.69;45.93
25526;BME280;13424;48.424;11.258;2022-08-01T12:20:22;95700.34;;;30.01;46.97
25526;BME280;13424;48.424;11.258;2022-08-01T12:22:59;95693.00;;;30.44;45.39
25526;BME280;13424;48.424;11.258;2022-08-01T12:25:25;95683.00;;;29.97;45.74
25526;BME280;13424;48.424;11.258;2022-08-01T12:27:52;95689.78;;;30.84;45.17
25526;BME280;13424;48.424;11.258;2022-08-01T12:30:21;95687.28;;;30.56;44.81
25526;BME280;13424;48.424;11.258;2022-08-01T12:32:52;95696.09;;;30.42;45.80
25526;BME280;13424;48.424;11.258;2022-08-01T12:35:23;95688.22;;;30.02;45.57
25526;BME280;13424;48.424;11.258;2022-08-01T12:37:57;95691.63;;;30.34;45.16
25526;BME280;13424;48.424;11.258;2022-08-01T12:40:32;95687.66;;;31.76;45.16
25526;BME280;13424;48.424;11.258;2022-08-01T12:43:07;95691.41;;;31.61;44.73
25526;BME280;13424;48.424;11.258;2022-08-01T12:45:38;95685.47;;;31.89;42.29
25526;BME280;13424;48.424;11.258;2022-08-01T12:48:15;95675.97;;;32.16;42.44
25526;BME280;13424;48.424;11.258;2022-08-01T12:50:49;95685.13;;;33.02;42.44
25526;BME280;13424;48.424;11.258;2022-08-01T12:53:16;95682.75;;;32.56;42.52
25526;BME280;13424;48.424;11.258;2022-08-01T12:55:53;95676.44;;;32.56;42.71
25526;BME280;13424;48.424;11.258;2022-08-01T12:58:21;95667.25;;;32.14;41.35
25526;BME280;13424;48.424;11.258;2022-08-01T13:00:50;95657.66;;;31.71;43.03
25526;BME280;13424;48.424;11.258;2022-08-01T13:03:27;95666.09;;;30.79;43.50
25526;BME280;13424;48.424;11.258;2022-08-01T13:05:57;95659.06;;;30.59;43.87
25526;BME280;13424;48.424;11.258;2022-08-01T13:08:32;95661.66;;;30.71;43.63
25526;BME280;13424;48.424;11.258;2022-08-01T13:11:11;95662.94;;;30.77;44.01
25526;BME280;13424;48.424;11.258;2022-08-01T13:13:46;95655.38;;;30.09;45.25
25526;BME280;13424;48.424;11.258;2022-08-01T13:16:23;95656.09;;;30.48;44.43
25526;BME280;13424;48.424;11.258;2022-08-01T13:18:54;95666.44;;;29.93;46.09
25526;BME280;13424;48.424;11.258;2022-08-01T13:21:28;95656.44;;;29.85;46.05
25526;BME280;13424;48.424;11.258;2022-08-01T13:24:12;95651.53;;;28.89;47.21
25526;BME280;13424;48.424;11.258;2022-08-01T13:26:50;95660.06;;;28.84;47.34
25526;BME280;13424;48.424;11.258;2022-08-01T13:29:23;95650.03;;;29.58;47.45
25526;BME280;13424;48.424;11.258;2022-08-01T13:31:54;95651.84;;;29.00;46.75
25526;BME280;13424;48.424;11.258;2022-08-01T13:34:34;95651.03;;;28.68;47.51
25526;BME280;13424;48.424;11.258;2022-08-01T13:37:01;95661.63;;;29.16;48.16
25526;BME280;13424;48.424;11.258;2022-08-01T13:39:33;95657.81;;;28.89;47.36
25526;BME280;13424;48.424;11.258;2022-08-01T13:42:16;95670.47;;;29.26;47.30
25526;BME280;13424;48.424;11.258;2022-08-01T13:44:43;95671.16;;;29.23;47.33
25526;BME280;13424;48.424;11.258;2022-08-01T13:47:12;95669.19;;;29.93;46.14
25526;BME280;13424;48.424;11.258;2022-08-01T13:49:38;95673.56;;;31.25;45.73
25526;BME280;13424;48.424;11.258;2022-08-01T13:52:05;95675.59;;;32.18;43.34
25526;BME280;13424;48.424;11.258;2022-08-01T13:54:34;95672.38;;;32.12;44.38
25526;BME280;13424;48.424;11.258;2022-08-01T13:57:00;95658.34;;;32.28;42.47